Chadwick Bay, New York
Current Conditions -  °F | °C
As of 6:53 AM on Friday 24 Oct 2014 (Local Time) from KDKK Reporting Station
Clear Clear  
Wind Chill: 36°   Ceiling: Unl
Heat Index: 36°   Visibility: 10mi
Dew Point: 36°   Wind: 3mph
Humidity: 100%   Direction: 220°SW
Pressure: 30.06"   Gusts: NA
Location:  42.4788°N, 79.3113°W
Report Text: KDKK 241053Z AUTO 22003KT 10SM CLR 02/02 A3006 RMK AO2 SLP183 T00220022
Loading
Personal Weather Stations






























Interactive Weather Map
Tropical Storm Tracking
New forecast layout! Learn more

10-Day Weather Forecast

Advertisements
Track Severe Weather on mobile